Fort Jefferson National Mon, Florida
Current Conditions -  °F | °C
As of 4:30 AM on Friday 24 Oct 2014 (Local Time) from KNQX Reporting Station
Overcast Overcast  
Wind Chill: 75°   Ceiling: 3600
Heat Index: 75°   Visibility: 10mi
Dew Point: 73°   Wind: 13mph
Humidity: 94%   Direction: 40°NE
Pressure: 29.8"   Gusts: 24mph
Location:  24.5796°N, 81.6849°W
Report Text: KNQX 240830Z AUTO 04011G21KT 10SM FEW011 FEW024 OVC036 24/23 A2980 RMK AO2 T02390228 TSNO $
Loading
Personal Weather Stations






























Interactive Weather Map
Tropical Storm Tracking
New forecast layout! Learn more

10-Day Weather Forecast

Advertisements
Track Severe Weather on mobile